sensor_id;sensor_type;location;lat;lon;timestamp;pressure;altitude;pressure_sealevel;temperature;humidity
21980;BME280;11154;48.558;9.234;2023-01-27T00:00:29;97715.72;;;4.77;73.25
21980;BME280;11154;48.558;9.234;2023-01-27T00:02:31;97716.06;;;4.73;72.55
21980;BME280;11154;48.558;9.234;2023-01-27T00:04:33;97708.44;;;4.70;73.05
21980;BME280;11154;48.558;9.234;2023-01-27T00:06:34;97706.63;;;4.70;73.75
21980;BME280;11154;48.558;9.234;2023-01-27T00:08:36;97700.28;;;4.73;73.50
21980;BME280;11154;48.558;9.234;2023-01-27T00:10:38;97697.63;;;4.73;73.65
21980;BME280;11154;48.558;9.234;2023-01-27T00:12:39;97702.31;;;4.69;73.20
21980;BME280;11154;48.558;9.234;2023-01-27T00:15:00;97705.91;;;4.68;73.19
21980;BME280;11154;48.558;9.234;2023-01-27T00:17:03;97707.56;;;4.69;73.48
21980;BME280;11154;48.558;9.234;2023-01-27T00:19:04;97701.50;;;4.69;73.71
21980;BME280;11154;48.558;9.234;2023-01-27T00:21:06;97702.31;;;4.69;73.75
21980;BME280;11154;48.558;9.234;2023-01-27T00:23:26;97703.25;;;4.68;73.68
21980;BME280;11154;48.558;9.234;2023-01-27T00:25:45;97702.31;;;4.69;73.93
21980;BME280;11154;48.558;9.234;2023-01-27T00:27:49;97703.66;;;4.64;73.88
21980;BME280;11154;48.558;9.234;2023-01-27T00:29:51;97693.94;;;4.64;73.39
21980;BME280;11154;48.558;9.234;2023-01-27T00:31:54;97700.03;;;4.65;74.15
21980;BME280;11154;48.558;9.234;2023-01-27T00:34:14;97694.28;;;4.71;74.13
21980;BME280;11154;48.558;9.234;2023-01-27T00:36:15;97702.09;;;4.72;73.98
21980;BME280;11154;48.558;9.234;2023-01-27T00:38:17;97706.25;;;4.75;73.57
21980;BME280;11154;48.558;9.234;2023-01-27T00:40:19;97707.09;;;4.75;73.47
21980;BME280;11154;48.558;9.234;2023-01-27T00:42:21;97709.50;;;4.78;73.21
21980;BME280;11154;48.558;9.234;2023-01-27T00:44:23;97700.63;;;4.79;72.92
21980;BME280;11154;48.558;9.234;2023-01-27T00:46:24;97703.16;;;4.81;72.94
21980;BME280;11154;48.558;9.234;2023-01-27T00:48:26;97700.50;;;4.81;72.68
21980;BME280;11154;48.558;9.234;2023-01-27T00:50:28;97709.13;;;4.83;72.90
21980;BME280;11154;48.558;9.234;2023-01-27T00:52:30;97707.19;;;4.85;73.30
21980;BME280;11154;48.558;9.234;2023-01-27T00:54:32;97701.09;;;4.84;72.83
21980;BME280;11154;48.558;9.234;2023-01-27T00:56:33;97699.28;;;4.85;72.54
21980;BME280;11154;48.558;9.234;2023-01-27T00:58:36;97710.56;;;4.87;73.06
21980;BME280;11154;48.558;9.234;2023-01-27T01:00:37;97706.97;;;4.88;72.21
21980;BME280;11154;48.558;9.234;2023-01-27T01:02:39;97707.91;;;4.87;72.32
21980;BME280;11154;48.558;9.234;2023-01-27T01:04:43;97709.00;;;4.84;72.76
21980;BME280;11154;48.558;9.234;2023-01-27T01:06:44;97706.50;;;4.83;72.30
21980;BME280;11154;48.558;9.234;2023-01-27T01:08:46;97714.63;;;4.80;72.06
21980;BME280;11154;48.558;9.234;2023-01-27T01:10:49;97710.19;;;4.80;72.26
21980;BME280;11154;48.558;9.234;2023-01-27T01:12:50;97711.28;;;4.78;72.09
21980;BME280;11154;48.558;9.234;2023-01-27T01:14:52;97704.09;;;4.80;71.88
21980;BME280;11154;48.558;9.234;2023-01-27T01:16:53;97716.53;;;4.78;72.14
21980;BME280;11154;48.558;9.234;2023-01-27T01:18:56;97708.41;;;4.81;72.12
21980;BME280;11154;48.558;9.234;2023-01-27T01:21:00;97711.03;;;4.81;72.28
21980;BME280;11154;48.558;9.234;2023-01-27T01:23:02;97714.16;;;4.86;72.40
21980;BME280;11154;48.558;9.234;2023-01-27T01:25:04;97721.31;;;4.84;72.22
21980;BME280;11154;48.558;9.234;2023-01-27T01:27:07;97713.56;;;4.82;71.75
21980;BME280;11154;48.558;9.234;2023-01-27T01:29:08;97720.84;;;4.79;71.32
21980;BME280;11154;48.558;9.234;2023-01-27T01:31:12;97716.53;;;4.78;71.42
21980;BME280;11154;48.558;9.234;2023-01-27T01:33:14;97723.34;;;4.80;72.07
21980;BME280;11154;48.558;9.234;2023-01-27T01:35:16;97717.28;;;4.80;71.70
21980;BME280;11154;48.558;9.234;2023-01-27T01:37:19;97711.28;;;4.78;72.12
21980;BME280;11154;48.558;9.234;2023-01-27T01:39:20;97712.25;;;4.77;71.97
21980;BME280;11154;48.558;9.234;2023-01-27T01:41:23;97712.25;;;4.77;72.44
21980;BME280;11154;48.558;9.234;2023-01-27T01:43:25;97719.31;;;4.76;71.97
21980;BME280;11154;48.558;9.234;2023-01-27T01:45:43;97719.31;;;4.76;72.34
21980;BME280;11154;48.558;9.234;2023-01-27T01:47:46;97717.75;;;4.74;71.76
21980;BME280;11154;48.558;9.234;2023-01-27T01:49:47;97715.84;;;4.76;72.21
21980;BME280;11154;48.558;9.234;2023-01-27T01:51:51;97711.28;;;4.78;72.12
21980;BME280;11154;48.558;9.234;2023-01-27T01:53:59;97714.16;;;4.75;72.16
21980;BME280;11154;48.558;9.234;2023-01-27T01:56:06;97717.28;;;4.80;72.60
21980;BME280;11154;48.558;9.234;2023-01-27T01:58:10;97709.13;;;4.83;71.92
21980;BME280;11154;48.558;9.234;2023-01-27T02:00:14;97660.31;;;4.68;71.62
21980;BME280;11154;48.558;9.234;2023-01-27T02:02:17;97672.78;;;3.21;79.08
21980;BME280;11154;48.558;9.234;2023-01-27T02:04:25;97664.56;;;2.79;83.64
21980;BME280;11154;48.558;9.234;2023-01-27T02:06:28;97663.72;;;2.55;85.48
21980;BME280;11154;48.558;9.234;2023-01-27T02:08:33;97667.91;;;2.45;86.98
21980;BME280;11154;48.558;9.234;2023-01-27T02:10:38;97659.84;;;2.35;88.24
21980;BME280;11154;48.558;9.234;2023-01-27T02:12:40;97661.16;;;2.30;88.92
21980;BME280;11154;48.558;9.234;2023-01-27T02:14:42;97659.78;;;2.24;88.54
21980;BME280;11154;48.558;9.234;2023-01-27T02:16:44;97665.97;;;2.23;88.90
21980;BME280;11154;48.558;9.234;2023-01-27T02:18:46;97660.84;;;2.22;89.55
21980;BME280;11154;48.558;9.234;2023-01-27T02:20:49;97653.72;;;2.24;90.35
21980;BME280;11154;48.558;9.234;2023-01-27T02:22:57;97664.31;;;2.22;90.48
21980;BME280;11154;48.558;9.234;2023-01-27T02:25:05;97654.78;;;2.21;90.96
21980;BME280;11154;48.558;9.234;2023-01-27T02:27:09;97658.94;;;2.24;91.45
21980;BME280;11154;48.558;9.234;2023-01-27T02:29:14;97654.84;;;2.20;91.27
21980;BME280;11154;48.558;9.234;2023-01-27T02:31:16;97647.94;;;2.19;91.71
21980;BME280;11154;48.558;9.234;2023-01-27T02:33:17;97651.09;;;2.24;92.08
21980;BME280;11154;48.558;9.234;2023-01-27T02:35:22;97652.16;;;2.21;92.00
21980;BME280;11154;48.558;9.234;2023-01-27T02:37:26;97650.22;;;2.23;92.30
21980;BME280;11154;48.558;9.234;2023-01-27T02:39:33;97649.16;;;2.26;91.95
21980;BME280;11154;48.558;9.234;2023-01-27T02:41:38;97646.28;;;2.18;91.57
21980;BME280;11154;48.558;9.234;2023-01-27T02:43:42;97649.09;;;2.15;91.54
21980;BME280;11154;48.558;9.234;2023-01-27T02:45:44;97648.78;;;2.19;92.08
21980;BME280;11154;48.558;9.234;2023-01-27T02:47:46;97649.72;;;2.18;92.10
21980;BME280;11154;48.558;9.234;2023-01-27T02:49:48;97645.72;;;2.13;92.21
21980;BME280;11154;48.558;9.234;2023-01-27T02:51:49;97655.28;;;2.14;92.69
21980;BME280;11154;48.558;9.234;2023-01-27T02:53:51;97653.50;;;2.14;93.32
21980;BME280;11154;48.558;9.234;2023-01-27T02:55:53;97653.72;;;2.12;93.30
21980;BME280;11154;48.558;9.234;2023-01-27T02:57:54;97657.28;;;2.11;92.66
21980;BME280;11154;48.558;9.234;2023-01-27T02:59:57;97650.38;;;2.10;93.12
21980;BME280;11154;48.558;9.234;2023-01-27T03:01:59;97638.72;;;2.13;93.55
21980;BME280;11154;48.558;9.234;2023-01-27T03:04:01;97652.78;;;2.13;94.00
21980;BME280;11154;48.558;9.234;2023-01-27T03:06:03;97648.59;;;2.10;94.00
21980;BME280;11154;48.558;9.234;2023-01-27T03:08:04;97639.34;;;2.05;94.19
21980;BME280;11154;48.558;9.234;2023-01-27T03:10:08;97644.41;;;2.08;94.29
21980;BME280;11154;48.558;9.234;2023-01-27T03:12:10;97643.66;;;2.06;94.19
21980;BME280;11154;48.558;9.234;2023-01-27T03:14:20;97646.06;;;2.09;93.99
21980;BME280;11154;48.558;9.234;2023-01-27T03:16:23;97645.66;;;2.14;93.70
21980;BME280;11154;48.558;9.234;2023-01-27T03:18:42;97640.28;;;2.16;93.63
21980;BME280;11154;48.558;9.234;2023-01-27T03:20:47;97651.59;;;2.16;93.60
21980;BME280;11154;48.558;9.234;2023-01-27T03:22:49;97646.59;;;2.13;93.55
21980;BME280;11154;48.558;9.234;2023-01-27T03:24:51;97645.72;;;2.13;93.54
21980;BME280;11154;48.558;9.234;2023-01-27T03:26:52;97641.22;;;2.15;94.10
21980;BME280;11154;48.558;9.234;2023-01-27T03:28:54;97655.28;;;2.14;93.52
21980;BME280;11154;48.558;9.234;2023-01-27T03:31:10;97641.84;;;2.18;94.03
21980;BME280;11154;48.558;9.234;2023-01-27T03:33:19;97644.78;;;2.14;93.53
21980;BME280;11154;48.558;9.234;2023-01-27T03:35:21;97648.34;;;2.13;94.08
21980;BME280;11154;48.558;9.234;2023-01-27T03:37:23;97639.66;;;2.13;93.56
21980;BME280;11154;48.558;9.234;2023-01-27T03:39:43;97645.84;;;2.12;93.68
21980;BME280;11154;48.558;9.234;2023-01-27T03:42:02;97652.78;;;2.13;93.58
21980;BME280;11154;48.558;9.234;2023-01-27T03:44:21;97656.22;;;2.13;93.86
21980;BME280;11154;48.558;9.234;2023-01-27T03:46:40;97657.19;;;2.12;93.87
21980;BME280;11154;48.558;9.234;2023-01-27T03:48:44;97661.59;;;2.12;93.86
21980;BME280;11154;48.558;9.234;2023-01-27T03:50:48;97658.25;;;2.10;94.07
21980;BME280;11154;48.558;9.234;2023-01-27T03:52:53;97654.47;;;2.13;93.63
21980;BME280;11154;48.558;9.234;2023-01-27T03:55:03;97658.53;;;2.17;94.25
21980;BME280;11154;48.558;9.234;2023-01-27T03:57:05;97666.50;;;2.16;93.53
21980;BME280;11154;48.558;9.234;2023-01-27T03:59:07;97663.78;;;2.17;93.73
21980;BME280;11154;48.558;9.234;2023-01-27T04:01:13;97690.53;;;2.94;92.36
21980;BME280;11154;48.558;9.234;2023-01-27T04:03:15;97700.59;;;3.47;88.92
21980;BME280;11154;48.558;9.234;2023-01-27T04:05:36;97682.63;;;3.75;85.47
21980;BME280;11154;48.558;9.234;2023-01-27T04:07:55;97685.31;;;3.97;83.32
21980;BME280;11154;48.558;9.234;2023-01-27T04:09:57;97698.84;;;4.14;81.68
21980;BME280;11154;48.558;9.234;2023-01-27T04:12:00;97697.66;;;4.29;79.66
21980;BME280;11154;48.558;9.234;2023-01-27T04:14:02;97690.84;;;4.37;78.69
21980;BME280;11154;48.558;9.234;2023-01-27T04:16:04;97688.44;;;4.45;77.85
21980;BME280;11154;48.558;9.234;2023-01-27T04:18:05;97691.56;;;4.50;77.21
21980;BME280;11154;48.558;9.234;2023-01-27T04:20:08;97683.03;;;4.58;77.19
21980;BME280;11154;48.558;9.234;2023-01-27T04:22:13;97687.38;;;4.70;76.19
21980;BME280;11154;48.558;9.234;2023-01-27T04:24:16;97686.75;;;4.77;76.08
21980;BME280;11154;48.558;9.234;2023-01-27T04:26:21;97679.44;;;4.81;75.56
21980;BME280;11154;48.558;9.234;2023-01-27T04:28:23;97689.72;;;4.84;75.13
21980;BME280;11154;48.558;9.234;2023-01-27T04:30:25;97684.22;;;4.87;75.30
21980;BME280;11154;48.558;9.234;2023-01-27T04:32:26;97692.72;;;4.90;74.82
21980;BME280;11154;48.558;9.234;2023-01-27T04:34:29;97691.84;;;4.90;73.90
21980;BME280;11154;48.558;9.234;2023-01-27T04:36:31;97690.06;;;4.90;74.02
21980;BME280;11154;48.558;9.234;2023-01-27T04:38:34;97684.53;;;4.93;74.04
21980;BME280;11154;48.558;9.234;2023-01-27T04:40:36;97687.09;;;4.95;73.67
21980;BME280;11154;48.558;9.234;2023-01-27T04:42:38;97683.72;;;4.93;73.30
21980;BME280;11154;48.558;9.234;2023-01-27T04:44:39;97690.66;;;4.94;73.62
21980;BME280;11154;48.558;9.234;2023-01-27T04:46:41;97692.56;;;4.92;73.41
21980;BME280;11154;48.558;9.234;2023-01-27T04:48:42;97704.56;;;4.96;73.90
21980;BME280;11154;48.558;9.234;2023-01-27T04:50:44;97698.22;;;4.98;73.84
21980;BME280;11154;48.558;9.234;2023-01-27T04:52:46;97691.25;;;4.97;73.71
21980;BME280;11154;48.558;9.234;2023-01-27T04:54:49;97689.44;;;4.97;73.68
21980;BME280;11154;48.558;9.234;2023-01-27T04:56:56;97692.34;;;4.95;73.21
21980;BME280;11154;48.558;9.234;2023-01-27T04:58:58;97686.13;;;4.96;72.93
21980;BME280;11154;48.558;9.234;2023-01-27T05:01:00;97703.00;;;4.93;73.12
21980;BME280;11154;48.558;9.234;2023-01-27T05:03:02;97692.72;;;4.90;73.36
21980;BME280;11154;48.558;9.234;2023-01-27T05:05:06;97696.16;;;4.91;73.50
21980;BME280;11154;48.558;9.234;2023-01-27T05:07:08;97698.81;;;4.91;72.95
21980;BME280;11154;48.558;9.234;2023-01-27T05:09:10;97702.28;;;4.91;72.93
21980;BME280;11154;48.558;9.234;2023-01-27T05:11:13;97701.44;;;4.91;72.89
21980;BME280;11154;48.558;9.234;2023-01-27T05:13:15;97706.97;;;4.88;72.80
21980;BME280;11154;48.558;9.234;2023-01-27T05:15:17;97711.28;;;4.89;73.40
21980;BME280;11154;48.558;9.234;2023-01-27T05:17:18;97707.19;;;4.85;73.07
21980;BME280;11154;48.558;9.234;2023-01-27T05:19:20;97710.56;;;4.87;73.04
21980;BME280;11154;48.558;9.234;2023-01-27T05:21:23;97714.88;;;4.88;73.07
21980;BME280;11154;48.558;9.234;2023-01-27T05:23:27;97717.50;;;4.88;73.17
21980;BME280;11154;48.558;9.234;2023-01-27T05:25:41;97713.78;;;4.90;72.93
21980;BME280;11154;48.558;9.234;2023-01-27T05:27:44;97710.56;;;4.87;72.03
21980;BME280;11154;48.558;9.234;2023-01-27T05:29:45;97712.47;;;4.85;72.53
21980;BME280;11154;48.558;9.234;2023-01-27T05:31:47;97714.28;;;4.84;72.36
21980;BME280;11154;48.558;9.234;2023-01-27T05:33:51;97721.09;;;4.87;72.15
21980;BME280;11154;48.558;9.234;2023-01-27T05:35:53;97715.81;;;4.87;71.81
21980;BME280;11154;48.558;9.234;2023-01-27T05:37:54;97722.78;;;4.88;72.17
21980;BME280;11154;48.558;9.234;2023-01-27T05:39:56;97725.16;;;4.91;72.08
21980;BME280;11154;48.558;9.234;2023-01-27T05:41:58;97718.94;;;4.92;71.82
21980;BME280;11154;48.558;9.234;2023-01-27T05:44:02;97714.75;;;4.89;72.44
21980;BME280;11154;48.558;9.234;2023-01-27T05:46:06;97727.91;;;4.89;72.24
21980;BME280;11154;48.558;9.234;2023-01-27T05:48:08;97722.50;;;4.91;72.15
21980;BME280;11154;48.558;9.234;2023-01-27T05:50:10;97729.00;;;4.87;71.59
21980;BME280;11154;48.558;9.234;2023-01-27T05:52:11;97725.63;;;4.85;71.90
21980;BME280;11154;48.558;9.234;2023-01-27T05:54:13;97717.72;;;4.85;71.56
21980;BME280;11154;48.558;9.234;2023-01-27T05:56:16;97719.19;;;4.89;71.53
21980;BME280;11154;48.558;9.234;2023-01-27T05:58:18;97724.44;;;4.89;71.45
21980;BME280;11154;48.558;9.234;2023-01-27T06:00:22;97729.59;;;4.90;71.63
21980;BME280;11154;48.558;9.234;2023-01-27T06:02:24;97731.28;;;4.91;71.28
21980;BME280;11154;48.558;9.234;2023-01-27T06:04:26;97727.69;;;4.92;71.16
21980;BME280;11154;48.558;9.234;2023-01-27T06:06:29;97741.91;;;4.90;70.76
21980;BME280;11154;48.558;9.234;2023-01-27T06:08:31;97731.50;;;4.88;71.19
21980;BME280;11154;48.558;9.234;2023-01-27T06:10:32;97739.03;;;4.93;71.42
21980;BME280;11154;48.558;9.234;2023-01-27T06:12:36;97728.50;;;4.93;70.59
21980;BME280;11154;48.558;9.234;2023-01-27T06:14:38;97731.88;;;4.95;70.47
21980;BME280;11154;48.558;9.234;2023-01-27T06:16:41;97741.06;;;5.00;71.00
21980;BME280;11154;48.558;9.234;2023-01-27T06:18:47;97741.78;;;5.02;70.99
21980;BME280;11154;48.558;9.234;2023-01-27T06:20:48;97735.19;;;4.97;70.45
21980;BME280;11154;48.558;9.234;2023-01-27T06:22:50;97731.97;;;4.93;70.59
21980;BME280;11154;48.558;9.234;2023-01-27T06:24:52;97730.19;;;4.94;70.85
21980;BME280;11154;48.558;9.234;2023-01-27T06:26:54;97739.50;;;4.97;70.70
21980;BME280;11154;48.558;9.234;2023-01-27T06:28:56;97742.59;;;5.02;70.78
21980;BME280;11154;48.558;9.234;2023-01-27T06:31:03;97734.00;;;5.00;70.48
21980;BME280;11154;48.558;9.234;2023-01-27T06:33:07;97738.31;;;5.01;70.93
21980;BME280;11154;48.558;9.234;2023-01-27T06:35:09;97734.25;;;5.08;70.30
21980;BME280;11154;48.558;9.234;2023-01-27T06:37:11;97731.34;;;5.11;70.67
21980;BME280;11154;48.558;9.234;2023-01-27T06:39:12;97732.16;;;5.12;70.27
21980;BME280;11154;48.558;9.234;2023-01-27T06:41:16;97736.25;;;5.16;70.28
21980;BME280;11154;48.558;9.234;2023-01-27T06:43:17;97732.53;;;5.18;69.78
21980;BME280;11154;48.558;9.234;2023-01-27T06:45:19;97743.06;;;5.18;69.69
21980;BME280;11154;48.558;9.234;2023-01-27T06:47:21;97749.16;;;5.19;69.32
21980;BME280;11154;48.558;9.234;2023-01-27T06:49:24;97746.44;;;5.20;70.04
21980;BME280;11154;48.558;9.234;2023-01-27T06:51:25;97758.88;;;5.18;69.97
21980;BME280;11154;48.558;9.234;2023-01-27T06:53:27;97766.66;;;5.20;70.32
21980;BME280;11154;48.558;9.234;2023-01-27T06:55:29;97758.97;;;5.28;70.42
21980;BME280;11154;48.558;9.234;2023-01-27T06:57:31;97772.25;;;5.37;70.04
21980;BME280;11154;48.558;9.234;2023-01-27T06:59:32;97767.94;;;5.36;69.56
21980;BME280;11154;48.558;9.234;2023-01-27T07:01:34;97761.50;;;5.29;69.84
21980;BME280;11154;48.558;9.234;2023-01-27T07:03:36;97766.91;;;5.28;70.23
21980;BME280;11154;48.558;9.234;2023-01-27T07:05:40;97782.56;;;5.29;70.50
21980;BME280;11154;48.558;9.234;2023-01-27T07:07:42;97781.16;;;5.25;70.48
21980;BME280;11154;48.558;9.234;2023-01-27T07:09:43;97791.47;;;5.17;71.19
21980;BME280;11154;48.558;9.234;2023-01-27T07:11:45;97790.16;;;5.12;71.76
21980;BME280;11154;48.558;9.234;2023-01-27T07:13:47;97789.22;;;5.02;72.12
21980;BME280;11154;48.558;9.234;2023-01-27T07:15:52;97784.06;;;5.00;72.50
21980;BME280;11154;48.558;9.234;2023-01-27T07:17:56;97796.75;;;5.06;73.53
21980;BME280;11154;48.558;9.234;2023-01-27T07:19:59;97798.44;;;5.07;72.94
21980;BME280;11154;48.558;9.234;2023-01-27T07:22:01;97794.72;;;4.99;73.23
21980;BME280;11154;48.558;9.234;2023-01-27T07:24:04;97807.19;;;4.97;73.50
21980;BME280;11154;48.558;9.234;2023-01-27T07:26:06;97796.66;;;4.97;73.66
21980;BME280;11154;48.558;9.234;2023-01-27T07:28:08;97804.91;;;4.93;73.27
21980;BME280;11154;48.558;9.234;2023-01-27T07:30:10;97804.19;;;4.91;73.41
21980;BME280;11154;48.558;9.234;2023-01-27T07:32:12;97803.00;;;4.95;73.75
21980;BME280;11154;48.558;9.234;2023-01-27T07:34:14;97796.03;;;4.94;73.67
21980;BME280;11154;48.558;9.234;2023-01-27T07:36:15;97806.59;;;4.94;74.05
21980;BME280;11154;48.558;9.234;2023-01-27T07:38:18;97811.84;;;4.94;73.98
21980;BME280;11154;48.558;9.234;2023-01-27T07:40:20;97806.59;;;4.94;73.79
21980;BME280;11154;48.558;9.234;2023-01-27T07:42:22;97810.91;;;4.95;73.86
21980;BME280;11154;48.558;9.234;2023-01-27T07:44:23;97815.78;;;4.99;73.42
21980;BME280;11154;48.558;9.234;2023-01-27T07:46:25;97818.19;;;5.02;73.64
21980;BME280;11154;48.558;9.234;2023-01-27T07:48:27;97825.28;;;5.01;73.57
21980;BME280;11154;48.558;9.234;2023-01-27T07:50:29;97823.34;;;5.03;73.90
21980;BME280;11154;48.558;9.234;2023-01-27T07:52:30;97826.94;;;5.13;73.64
21980;BME280;11154;48.558;9.234;2023-01-27T07:54:33;97817.44;;;5.97;72.29
21980;BME280;11154;48.558;9.234;2023-01-27T07:56:35;97818.53;;;6.15;67.97
21980;BME280;11154;48.558;9.234;2023-01-27T07:58:37;97813.13;;;5.85;68.21
21980;BME280;11154;48.558;9.234;2023-01-27T08:00:39;97829.16;;;5.62;69.28
21980;BME280;11154;48.558;9.234;2023-01-27T08:02:40;97824.38;;;5.45;70.12
21980;BME280;11154;48.558;9.234;2023-01-27T08:04:42;97825.94;;;5.36;70.68
21980;BME280;11154;48.558;9.234;2023-01-27T08:06:43;97828.25;;;5.30;71.83
21980;BME280;11154;48.558;9.234;2023-01-27T08:08:45;97816.97;;;5.28;71.86
21980;BME280;11154;48.558;9.234;2023-01-27T08:10:49;97827.66;;;5.26;71.75
21980;BME280;11154;48.558;9.234;2023-01-27T08:12:50;97825.25;;;5.23;72.30
21980;BME280;11154;48.558;9.234;2023-01-27T08:14:52;97832.69;;;5.18;71.69
21980;BME280;11154;48.558;9.234;2023-01-27T08:16:53;97837.22;;;5.16;72.46
21980;BME280;11154;48.558;9.234;2023-01-27T08:18:55;97831.00;;;5.17;72.74
21980;BME280;11154;48.558;9.234;2023-01-27T08:20:58;97830.19;;;5.17;72.29
21980;BME280;11154;48.558;9.234;2023-01-27T08:23:00;97826.69;;;5.16;72.60
21980;BME280;11154;48.558;9.234;2023-01-27T08:25:02;97822.88;;;5.20;72.92
21980;BME280;11154;48.558;9.234;2023-01-27T08:27:05;97825.97;;;5.25;72.81
21980;BME280;11154;48.558;9.234;2023-01-27T08:29:07;97824.63;;;5.31;71.93
21980;BME280;11154;48.558;9.234;2023-01-27T08:31:10;97831.34;;;5.35;72.12
21980;BME280;11154;48.558;9.234;2023-01-27T08:33:12;97834.81;;;5.35;71.87
21980;BME280;11154;48.558;9.234;2023-01-27T08:35:14;97840.44;;;5.42;71.48
21980;BME280;11154;48.558;9.234;2023-01-27T08:37:16;97839.97;;;5.37;71.13
21980;BME280;11154;48.558;9.234;2023-01-27T08:39:17;97843.47;;;5.26;70.89
21980;BME280;11154;48.558;9.234;2023-01-27T08:41:21;97846.47;;;5.22;70.42
21980;BME280;11154;48.558;9.234;2023-01-27T08:43:25;97851.34;;;5.15;70.83
21980;BME280;11154;48.558;9.234;2023-01-27T08:45:27;97860.94;;;5.16;70.64
21980;BME280;11154;48.558;9.234;2023-01-27T08:47:28;97855.94;;;5.13;70.61
21980;BME280;11154;48.558;9.234;2023-01-27T08:49:31;97856.75;;;5.14;70.48
21980;BME280;11154;48.558;9.234;2023-01-27T08:51:33;97854.84;;;5.16;70.33
21980;BME280;11154;48.558;9.234;2023-01-27T08:53:35;97858.44;;;5.15;70.25
21980;BME280;11154;48.558;9.234;2023-01-27T08:55:37;97851.84;;;5.09;70.21
21980;BME280;11154;48.558;9.234;2023-01-27T08:57:38;97863.94;;;5.12;70.62
21980;BME280;11154;48.558;9.234;2023-01-27T08:59:41;97859.75;;;5.20;70.48
21980;BME280;11154;48.558;9.234;2023-01-27T09:01:45;97859.84;;;5.19;69.59
21980;BME280;11154;48.558;9.234;2023-01-27T09:03:47;97865.72;;;5.22;69.49
21980;BME280;11154;48.558;9.234;2023-01-27T09:05:49;97862.41;;;5.20;69.77
21980;BME280;11154;48.558;9.234;2023-01-27T09:07:50;97864.56;;;5.26;70.40
21980;BME280;11154;48.558;9.234;2023-01-27T09:09:52;97859.28;;;5.26;70.01
21980;BME280;11154;48.558;9.234;2023-01-27T09:11:54;97868.75;;;5.29;70.17
21980;BME280;11154;48.558;9.234;2023-01-27T09:13:55;97848.13;;;5.34;69.95
21980;BME280;11154;48.558;9.234;2023-01-27T09:15:58;97850.13;;;5.41;69.70
21980;BME280;11154;48.558;9.234;2023-01-27T09:18:02;97852.31;;;5.36;68.96
21980;BME280;11154;48.558;9.234;2023-01-27T09:20:04;97858.31;;;5.27;68.13
21980;BME280;11154;48.558;9.234;2023-01-27T09:22:06;97850.78;;;5.23;68.49
21980;BME280;11154;48.558;9.234;2023-01-27T09:24:07;97850.41;;;5.27;68.83
21980;BME280;11154;48.558;9.234;2023-01-27T09:26:10;97846.09;;;5.26;68.04
21980;BME280;11154;48.558;9.234;2023-01-27T09:28:12;97853.63;;;5.31;68.89
21980;BME280;11154;48.558;9.234;2023-01-27T09:30:17;97856.16;;;5.32;68.76
21980;BME280;11154;48.558;9.234;2023-01-27T09:32:20;97852.31;;;5.36;68.34
21980;BME280;11154;48.558;9.234;2023-01-27T09:34:21;97852.56;;;5.33;67.85
21980;BME280;11154;48.558;9.234;2023-01-27T09:36:23;97846.09;;;5.26;67.25
21980;BME280;11154;48.558;9.234;2023-01-27T09:38:26;97854.22;;;5.23;67.61
21980;BME280;11154;48.558;9.234;2023-01-27T09:40:31;97853.03;;;5.16;67.56
21980;BME280;11154;48.558;9.234;2023-01-27T09:42:49;97853.38;;;5.12;68.34
21980;BME280;11154;48.558;9.234;2023-01-27T09:47:46;97854.84;;;5.16;67.91
21980;BME280;11154;48.558;9.234;2023-01-27T09:50:06;97854.38;;;5.11;67.92
21980;BME280;11154;48.558;9.234;2023-01-27T09:52:31;97849.81;;;5.13;67.46
21980;BME280;11154;48.558;9.234;2023-01-27T09:54:46;97861.19;;;5.13;67.53
21980;BME280;11154;48.558;9.234;2023-01-27T09:56:58;97851.34;;;5.15;67.82
21980;BME280;11154;48.558;9.234;2023-01-27T09:59:04;97856.28;;;5.20;67.40
21980;BME280;11154;48.558;9.234;2023-01-27T10:01:17;97867.91;;;5.17;67.38
21980;BME280;11154;48.558;9.234;2023-01-27T10:03:29;97874.13;;;5.16;66.13
21980;BME280;11154;48.558;9.234;2023-01-27T10:05:49;97865.50;;;5.14;66.06
21980;BME280;11154;48.558;9.234;2023-01-27T10:08:08;97879.28;;;5.18;66.51
21980;BME280;11154;48.558;9.234;2023-01-27T10:10:23;97869.81;;;5.15;65.60
21980;BME280;11154;48.558;9.234;2023-01-27T10:12:42;97867.75;;;5.19;66.31
21980;BME280;11154;48.558;9.234;2023-01-27T10:14:52;97869.91;;;5.25;65.91
21980;BME280;11154;48.558;9.234;2023-01-27T10:17:14;97880.09;;;5.29;65.62
21980;BME280;11154;48.558;9.234;2023-01-27T10:19:33;97874.84;;;5.29;65.50
21980;BME280;11154;48.558;9.234;2023-01-27T10:21:45;97880.25;;;5.28;65.63
21980;BME280;11154;48.558;9.234;2023-01-27T10:23:56;97884.78;;;5.26;66.16
21980;BME280;11154;48.558;9.234;2023-01-27T10:26:08;97887.78;;;5.21;66.07
21980;BME280;11154;48.558;9.234;2023-01-27T10:28:16;97890.78;;;5.17;66.66
21980;BME280;11154;48.558;9.234;2023-01-27T10:30:26;97885.63;;;5.37;66.25
21980;BME280;11154;48.558;9.234;2023-01-27T10:32:37;97885.41;;;5.40;65.03
21980;BME280;11154;48.558;9.234;2023-01-27T10:34:47;97888.00;;;5.29;65.59
21980;BME280;11154;48.558;9.234;2023-01-27T10:36:55;97887.06;;;5.19;65.93
21980;BME280;11154;48.558;9.234;2023-01-27T10:39:10;97881.53;;;5.22;66.54
21980;BME280;11154;48.558;9.234;2023-01-27T10:41:22;97876.88;;;5.26;66.82
21980;BME280;11154;48.558;9.234;2023-01-27T10:43:31;97872.47;;;5.26;66.61
21980;BME280;11154;48.558;9.234;2023-01-27T10:45:36;97872.19;;;5.51;67.12
21980;BME280;11154;48.558;9.234;2023-01-27T10:47:50;97879.50;;;6.12;65.35
21980;BME280;11154;48.558;9.234;2023-01-27T10:49:59;97876.53;;;6.57;62.97
21980;BME280;11154;48.558;9.234;2023-01-27T10:52:08;97876.06;;;6.93;61.08
21980;BME280;11154;48.558;9.234;2023-01-27T10:54:14;97877.41;;;7.08;60.13
21980;BME280;11154;48.558;9.234;2023-01-27T10:56:23;97870.06;;;7.11;59.20
21980;BME280;11154;48.558;9.234;2023-01-27T10:58:38;97876.06;;;6.93;58.80
21980;BME280;11154;48.558;9.234;2023-01-27T11:00:44;97884.91;;;6.42;61.19
21980;BME280;11154;48.558;9.234;2023-01-27T11:02:55;97877.81;;;6.11;63.02
21980;BME280;11154;48.558;9.234;2023-01-27T11:05:02;97874.50;;;5.98;63.74
21980;BME280;11154;48.558;9.234;2023-01-27T11:07:05;97875.63;;;5.73;63.98
21980;BME280;11154;48.558;9.234;2023-01-27T11:09:13;97883.41;;;5.75;64.95